AXM541 WMKK-VTSP
Flight info
| Callsign | AXM541 |
|---|---|
| Flight time | 1h 2m |
| Altitude | 38000 |
| Route | BIKDU1F BIKDU Y501 RINBA Y502 DUBAX R325 URGAD URGAD1C |
| Aircraft | A20N/M-SDE2E3FGHIRWXY/LB1 |
Departure
| Time | 2026-05-07 13:40 |
|---|---|
| Airport | Kuala Lumpur International Airport (WMKK) |
Arrival
| Time | 2026-05-07 14:43 |
|---|---|
| Airport | Phuket International Airport (VTSP) |
| Time | Latitude | Longitude | Altitude | Speed | Heading |
|---|---|---|---|---|---|
| 2026-05-07 13:21 | 2.74045 | 101.68480 | 47 ft | 0 kts | 326° |
| 2026-05-07 13:27 | 2.74043 | 101.68481 | 48 ft | 1 kts | 326° |
| 2026-05-07 13:27 | 2.74035 | 101.68486 | 48 ft | 1 kts | 326° |
| 2026-05-07 13:27 | 2.74028 | 101.68491 | 46 ft | 1 kts | 326° |
| 2026-05-07 13:28 | 2.74017 | 101.68498 | 48 ft | 3 kts | 326° |
| 2026-05-07 13:28 | 2.74002 | 101.68508 | 45 ft | 2 kts | 326° |
| 2026-05-07 13:28 | 2.73990 | 101.68516 | 47 ft | 2 kts | 326° |
| 2026-05-07 13:28 | 2.73978 | 101.68525 | 45 ft | 2 kts | 312° |
| 2026-05-07 13:29 | 2.73969 | 101.68537 | 47 ft | 2 kts | 274° |
| 2026-05-07 13:29 | 2.73970 | 101.68547 | 46 ft | 0 kts | 239° |
| 2026-05-07 13:29 | 2.73968 | 101.68544 | 46 ft | 0 kts | 237° |
| 2026-05-07 13:31 | 2.73964 | 101.68539 | 46 ft | 3 kts | 237° |
| 2026-05-07 13:31 | 2.73945 | 101.68508 | 49 ft | 7 kts | 237° |
| 2026-05-07 13:32 | 2.73913 | 101.68461 | 48 ft | 5 kts | 235° |
| 2026-05-07 13:32 | 2.73886 | 101.68422 | 48 ft | 9 kts | 235° |
| 2026-05-07 13:32 | 2.73847 | 101.68365 | 48 ft | 0 kts | 235° |
| 2026-05-07 13:32 | 2.73837 | 101.68351 | 48 ft | 6 kts | 235° |
| 2026-05-07 13:33 | 2.73803 | 101.68302 | 48 ft | 11 kts | 235° |
| 2026-05-07 13:33 | 2.73755 | 101.68232 | 47 ft | 13 kts | 236° |
| 2026-05-07 13:33 | 2.73706 | 101.68169 | 43 ft | 12 kts | 207° |
| 2026-05-07 13:33 | 2.73639 | 101.68209 | 43 ft | 11 kts | 146° |
| 2026-05-07 13:34 | 2.73570 | 101.68255 | 43 ft | 14 kts | 146° |
| 2026-05-07 13:34 | 2.73385 | 101.68381 | 44 ft | 18 kts | 146° |
| 2026-05-07 13:34 | 2.73274 | 101.68454 | 42 ft | 18 kts | 146° |
| 2026-05-07 13:35 | 2.73170 | 101.68524 | 41 ft | 18 kts | 146° |
| 2026-05-07 13:35 | 2.73061 | 101.68596 | 40 ft | 19 kts | 146° |
| 2026-05-07 13:35 | 2.72946 | 101.68674 | 37 ft | 21 kts | 147° |
| 2026-05-07 13:35 | 2.72818 | 101.68760 | 36 ft | 23 kts | 145° |
| 2026-05-07 13:36 | 2.72704 | 101.68837 | 33 ft | 20 kts | 146° |
| 2026-05-07 13:36 | 2.72589 | 101.68913 | 32 ft | 18 kts | 146° |
| 2026-05-07 13:36 | 2.72477 | 101.68989 | 33 ft | 20 kts | 146° |
| 2026-05-07 13:36 | 2.72400 | 101.69040 | 33 ft | 17 kts | 146° |
| 2026-05-07 13:37 | 2.72292 | 101.69112 | 35 ft | 19 kts | 146° |
| 2026-05-07 13:37 | 2.72190 | 101.69181 | 38 ft | 18 kts | 146° |
| 2026-05-07 13:37 | 2.72041 | 101.69281 | 39 ft | 19 kts | 146° |
| 2026-05-07 13:37 | 2.71969 | 101.69329 | 40 ft | 18 kts | 146° |
| 2026-05-07 13:38 | 2.71873 | 101.69393 | 40 ft | 14 kts | 152° |
| 2026-05-07 13:38 | 2.71799 | 101.69351 | 41 ft | 9 kts | 238° |
| 2026-05-07 13:38 | 2.71762 | 101.69293 | 41 ft | 10 kts | 236° |
| 2026-05-07 13:38 | 2.71751 | 101.69273 | 41 ft | 2 kts | 249° |
| 2026-05-07 13:39 | 2.71750 | 101.69250 | 41 ft | 5 kts | 278° |
| 2026-05-07 13:39 | 2.71772 | 101.69208 | 41 ft | 10 kts | 299° |
| 2026-05-07 13:39 | 2.71813 | 101.69135 | 41 ft | 14 kts | 299° |
| 2026-05-07 13:39 | 2.71847 | 101.69075 | 40 ft | 6 kts | 328° |
| 2026-05-07 13:40 | 2.71861 | 101.69065 | 40 ft | 13 kts | 325° |
| 2026-05-07 13:40 | 2.72213 | 101.68832 | 36 ft | 107 kts | 327° |
| 2026-05-07 13:40 | 2.73028 | 101.68281 | 47 ft | 176 kts | 326° |
| 2026-05-07 13:40 | 2.74063 | 101.67589 | 796 ft | 178 kts | 327° |
| 2026-05-07 13:41 | 2.75110 | 101.66885 | 1638 ft | 185 kts | 327° |
| 2026-05-07 13:41 | 2.76209 | 101.66181 | 2517 ft | 189 kts | 330° |
| 2026-05-07 13:41 | 2.77515 | 101.65842 | 3125 ft | 204 kts | 5° |
| 2026-05-07 13:41 | 2.78968 | 101.66146 | 3650 ft | 223 kts | 18° |
| 2026-05-07 13:42 | 2.80548 | 101.66557 | 3901 ft | 250 kts | 3° |
| 2026-05-07 13:42 | 2.82362 | 101.66341 | 4397 ft | 273 kts | 348° |
| 2026-05-07 13:42 | 2.84234 | 101.65869 | 5346 ft | 278 kts | 345° |
| 2026-05-07 13:42 | 2.86109 | 101.65356 | 6417 ft | 281 kts | 345° |
| 2026-05-07 13:43 | 2.88007 | 101.64852 | 7377 ft | 284 kts | 346° |
| 2026-05-07 13:43 | 2.89941 | 101.64362 | 8312 ft | 289 kts | 347° |
| 2026-05-07 13:43 | 2.91885 | 101.63887 | 9229 ft | 293 kts | 347° |
| 2026-05-07 13:43 | 2.93881 | 101.63409 | 10128 ft | 297 kts | 348° |
| 2026-05-07 13:44 | 2.95950 | 101.62918 | 10665 ft | 317 kts | 348° |
| 2026-05-07 13:44 | 2.98179 | 101.62391 | 10969 ft | 341 kts | 348° |
| 2026-05-07 13:44 | 3.00539 | 101.61832 | 11538 ft | 352 kts | 348° |
| 2026-05-07 13:44 | 3.02937 | 101.61261 | 12340 ft | 357 kts | 348° |
| 2026-05-07 13:45 | 3.05363 | 101.60683 | 13160 ft | 360 kts | 348° |
| 2026-05-07 13:45 | 3.07817 | 101.60098 | 13914 ft | 365 kts | 349° |
| 2026-05-07 13:45 | 3.10303 | 101.59505 | 14607 ft | 369 kts | 349° |
| 2026-05-07 13:45 | 3.12821 | 101.58906 | 15292 ft | 374 kts | 349° |
| 2026-05-07 13:46 | 3.15368 | 101.58300 | 15959 ft | 378 kts | 349° |
| 2026-05-07 13:46 | 3.17944 | 101.57687 | 16607 ft | 382 kts | 349° |
| 2026-05-07 13:46 | 3.20542 | 101.57070 | 17233 ft | 387 kts | 349° |
| 2026-05-07 13:46 | 3.23176 | 101.56443 | 17865 ft | 391 kts | 349° |
| 2026-05-07 13:47 | 3.25834 | 101.55811 | 18440 ft | 395 kts | 349° |
| 2026-05-07 13:47 | 3.28525 | 101.55171 | 18983 ft | 398 kts | 349° |
| 2026-05-07 13:47 | 3.31234 | 101.54527 | 19525 ft | 401 kts | 349° |
| 2026-05-07 13:47 | 3.33963 | 101.53877 | 20062 ft | 405 kts | 349° |
| 2026-05-07 13:48 | 3.36717 | 101.53222 | 20596 ft | 408 kts | 349° |
| 2026-05-07 13:48 | 3.39497 | 101.52561 | 21054 ft | 413 kts | 349° |
| 2026-05-07 13:48 | 3.42307 | 101.51893 | 21582 ft | 416 kts | 349° |
| 2026-05-07 13:48 | 3.45133 | 101.51220 | 22111 ft | 419 kts | 348° |
| 2026-05-07 13:49 | 3.47987 | 101.50541 | 22610 ft | 423 kts | 348° |
| 2026-05-07 13:49 | 3.50821 | 101.49867 | 23103 ft | 426 kts | 348° |
| 2026-05-07 13:49 | 3.53719 | 101.49178 | 23558 ft | 430 kts | 348° |
| 2026-05-07 13:49 | 3.56635 | 101.48484 | 23979 ft | 432 kts | 348° |
| 2026-05-07 13:50 | 3.59573 | 101.47785 | 24405 ft | 435 kts | 348° |
| 2026-05-07 13:50 | 3.62524 | 101.47083 | 24812 ft | 437 kts | 348° |
| 2026-05-07 13:50 | 3.65493 | 101.46376 | 25205 ft | 440 kts | 348° |
| 2026-05-07 13:50 | 3.68487 | 101.45664 | 25592 ft | 443 kts | 348° |
| 2026-05-07 13:51 | 3.71493 | 101.44949 | 25961 ft | 447 kts | 348° |
| 2026-05-07 13:51 | 3.74548 | 101.44222 | 26076 ft | 456 kts | 348° |
| 2026-05-07 13:51 | 3.77673 | 101.43479 | 26169 ft | 466 kts | 348° |
| 2026-05-07 13:51 | 3.80859 | 101.42721 | 26263 ft | 474 kts | 348° |
| 2026-05-07 13:52 | 3.84042 | 101.41863 | 26812 ft | 469 kts | 343° |
| 2026-05-07 13:52 | 3.87043 | 101.40694 | 27720 ft | 460 kts | 338° |
| 2026-05-07 13:52 | 3.89971 | 101.39389 | 28064 ft | 463 kts | 338° |
| 2026-05-07 13:52 | 3.92931 | 101.38074 | 28252 ft | 469 kts | 338° |
| 2026-05-07 13:53 | 3.95943 | 101.36737 | 28335 ft | 477 kts | 338° |
| 2026-05-07 13:53 | 3.98994 | 101.35381 | 28501 ft | 482 kts | 338° |
| 2026-05-07 13:53 | 4.02029 | 101.34032 | 28780 ft | 484 kts | 338° |
| 2026-05-07 13:53 | 4.05111 | 101.32661 | 29077 ft | 486 kts | 337° |
| 2026-05-07 13:54 | 4.08206 | 101.31283 | 29347 ft | 488 kts | 337° |
| 2026-05-07 13:54 | 4.11357 | 101.29882 | 29655 ft | 490 kts | 338° |
| 2026-05-07 13:54 | 4.14436 | 101.28511 | 29936 ft | 491 kts | 338° |
| 2026-05-07 13:54 | 4.17565 | 101.27119 | 30165 ft | 493 kts | 338° |
| 2026-05-07 13:55 | 4.20709 | 101.25719 | 30430 ft | 495 kts | 338° |
| 2026-05-07 13:55 | 4.23859 | 101.24317 | 30677 ft | 496 kts | 338° |
| 2026-05-07 13:55 | 4.27024 | 101.22909 | 30914 ft | 498 kts | 338° |
| 2026-05-07 13:55 | 4.30194 | 101.21497 | 31103 ft | 500 kts | 338° |
| 2026-05-07 13:56 | 4.33371 | 101.20083 | 31337 ft | 500 kts | 338° |
| 2026-05-07 13:56 | 4.36544 | 101.18669 | 31606 ft | 499 kts | 338° |
| 2026-05-07 13:56 | 4.39717 | 101.17256 | 31872 ft | 498 kts | 338° |
| 2026-05-07 13:56 | 4.42878 | 101.15848 | 32127 ft | 497 kts | 338° |
| 2026-05-07 13:57 | 4.46040 | 101.14440 | 32380 ft | 496 kts | 338° |
| 2026-05-07 13:57 | 4.49197 | 101.13033 | 32628 ft | 496 kts | 338° |
| 2026-05-07 13:57 | 4.52353 | 101.11628 | 32805 ft | 497 kts | 338° |
| 2026-05-07 13:57 | 4.55509 | 101.10222 | 33049 ft | 496 kts | 338° |
| 2026-05-07 13:58 | 4.58667 | 101.08817 | 33295 ft | 495 kts | 338° |
| 2026-05-07 13:58 | 4.61789 | 101.07461 | 33527 ft | 495 kts | 338° |
| 2026-05-07 13:58 | 4.64951 | 101.06106 | 33758 ft | 494 kts | 338° |
| 2026-05-07 13:58 | 4.68115 | 101.04752 | 33977 ft | 494 kts | 338° |
| 2026-05-07 13:59 | 4.71258 | 101.03403 | 34411 ft | 485 kts | 338° |
| 2026-05-07 13:59 | 4.74319 | 101.02084 | 35100 ft | 474 kts | 338° |
| 2026-05-07 13:59 | 4.77340 | 101.00784 | 35521 ft | 470 kts | 338° |
| 2026-05-07 13:59 | 4.80343 | 100.99489 | 35815 ft | 470 kts | 338° |
| 2026-05-07 14:00 | 4.83349 | 100.98194 | 36105 ft | 469 kts | 339° |
| 2026-05-07 14:00 | 4.86345 | 100.96902 | 36404 ft | 468 kts | 339° |
| 2026-05-07 14:00 | 4.89336 | 100.95613 | 36731 ft | 467 kts | 338° |
| 2026-05-07 14:00 | 4.92318 | 100.94327 | 37039 ft | 466 kts | 338° |
| 2026-05-07 14:01 | 4.95298 | 100.93041 | 37340 ft | 465 kts | 338° |
| 2026-05-07 14:01 | 4.98269 | 100.91759 | 37637 ft | 465 kts | 338° |
| 2026-05-07 14:01 | 5.01236 | 100.90479 | 37842 ft | 464 kts | 338° |
| 2026-05-07 14:02 | 5.07148 | 100.87924 | 37874 ft | 462 kts | 338° |
| 2026-05-07 14:02 | 5.13060 | 100.85369 | 37868 ft | 463 kts | 338° |
| 2026-05-07 14:03 | 5.18970 | 100.82814 | 37866 ft | 462 kts | 338° |
| 2026-05-07 14:03 | 5.24875 | 100.80262 | 37869 ft | 462 kts | 338° |
| 2026-05-07 14:04 | 5.30784 | 100.77707 | 37863 ft | 462 kts | 338° |
| 2026-05-07 14:04 | 5.36644 | 100.75146 | 37865 ft | 462 kts | 335° |
| 2026-05-07 14:05 | 5.42290 | 100.72036 | 37861 ft | 463 kts | 332° |
| 2026-05-07 14:05 | 5.47592 | 100.69038 | 37860 ft | 463 kts | 332° |
| 2026-05-07 14:06 | 5.52998 | 100.65986 | 37861 ft | 463 kts | 332° |
| 2026-05-07 14:06 | 5.58619 | 100.62809 | 37859 ft | 463 kts | 332° |
| 2026-05-07 14:07 | 5.64230 | 100.59637 | 37880 ft | 463 kts | 332° |
| 2026-05-07 14:07 | 5.69835 | 100.56467 | 37864 ft | 462 kts | 331° |
| 2026-05-07 14:08 | 5.75445 | 100.53292 | 37871 ft | 462 kts | 331° |
| 2026-05-07 14:08 | 5.81033 | 100.50096 | 37870 ft | 462 kts | 330° |
| 2026-05-07 14:09 | 5.86537 | 100.46769 | 37867 ft | 462 kts | 330° |
| 2026-05-07 14:09 | 5.92010 | 100.43461 | 37857 ft | 461 kts | 330° |
| 2026-05-07 14:10 | 5.97516 | 100.40151 | 37857 ft | 461 kts | 330° |
| 2026-05-07 14:10 | 6.03025 | 100.36845 | 37852 ft | 461 kts | 329° |
| 2026-05-07 14:11 | 6.08527 | 100.33541 | 37852 ft | 461 kts | 329° |
| 2026-05-07 14:11 | 6.14032 | 100.30235 | 37869 ft | 461 kts | 329° |
| 2026-05-07 14:12 | 6.19537 | 100.26927 | 37863 ft | 461 kts | 329° |
| 2026-05-07 14:12 | 6.25039 | 100.23621 | 37868 ft | 461 kts | 329° |
| 2026-05-07 14:13 | 6.30542 | 100.20314 | 37863 ft | 461 kts | 330° |
| 2026-05-07 14:13 | 6.36060 | 100.16995 | 37854 ft | 462 kts | 330° |
| 2026-05-07 14:14 | 6.41492 | 100.13533 | 37865 ft | 462 kts | 324° |
| 2026-05-07 14:14 | 6.46319 | 100.09265 | 37861 ft | 463 kts | 314° |
| 2026-05-07 14:15 | 6.50666 | 100.04462 | 37865 ft | 464 kts | 313° |
| 2026-05-07 14:15 | 6.55020 | 99.99665 | 37872 ft | 464 kts | 313° |
| 2026-05-07 14:16 | 6.59375 | 99.94862 | 37877 ft | 465 kts | 313° |
| 2026-05-07 14:16 | 6.63728 | 99.90055 | 37875 ft | 465 kts | 313° |
| 2026-05-07 14:17 | 6.68055 | 99.85275 | 37876 ft | 465 kts | 313° |
| 2026-05-07 14:17 | 6.72406 | 99.80463 | 37875 ft | 465 kts | 313° |
| 2026-05-07 14:18 | 6.76758 | 99.75654 | 37871 ft | 462 kts | 313° |
| 2026-05-07 14:18 | 6.81079 | 99.70875 | 37870 ft | 462 kts | 313° |
| 2026-05-07 14:19 | 6.85404 | 99.66092 | 37858 ft | 462 kts | 313° |
| 2026-05-07 14:19 | 6.89726 | 99.61310 | 37869 ft | 462 kts | 313° |
| 2026-05-07 14:20 | 6.94052 | 99.56523 | 37867 ft | 462 kts | 313° |
| 2026-05-07 14:20 | 6.98351 | 99.51764 | 37865 ft | 462 kts | 313° |
| 2026-05-07 14:21 | 7.02702 | 99.46995 | 37825 ft | 462 kts | 314° |
| 2026-05-07 14:21 | 7.04915 | 99.44644 | 37524 ft | 463 kts | 314° |
| 2026-05-07 14:21 | 7.07143 | 99.42288 | 36997 ft | 465 kts | 314° |
| 2026-05-07 14:21 | 7.09368 | 99.39931 | 36384 ft | 466 kts | 314° |
| 2026-05-07 14:22 | 7.11599 | 99.37561 | 35761 ft | 465 kts | 314° |
| 2026-05-07 14:22 | 7.13818 | 99.35199 | 35048 ft | 462 kts | 314° |
| 2026-05-07 14:22 | 7.16029 | 99.32843 | 34370 ft | 465 kts | 314° |
| 2026-05-07 14:22 | 7.18266 | 99.30457 | 33684 ft | 472 kts | 314° |
| 2026-05-07 14:23 | 7.20531 | 99.28040 | 32928 ft | 475 kts | 314° |
| 2026-05-07 14:23 | 7.22806 | 99.25612 | 32212 ft | 478 kts | 314° |
| 2026-05-07 14:23 | 7.24329 | 99.23987 | 31741 ft | 482 kts | 314° |
| 2026-05-07 14:23 | 7.27388 | 99.20721 | 30814 ft | 484 kts | 314° |
| 2026-05-07 14:24 | 7.29694 | 99.18259 | 30143 ft | 483 kts | 314° |
| 2026-05-07 14:24 | 7.31983 | 99.15814 | 29324 ft | 474 kts | 314° |
| 2026-05-07 14:24 | 7.34225 | 99.13419 | 28503 ft | 467 kts | 314° |
| 2026-05-07 14:24 | 7.36448 | 99.11045 | 27639 ft | 463 kts | 314° |
| 2026-05-07 14:25 | 7.38646 | 99.08697 | 26794 ft | 458 kts | 314° |
| 2026-05-07 14:25 | 7.40095 | 99.07149 | 26252 ft | 454 kts | 314° |
| 2026-05-07 14:25 | 7.42242 | 99.04854 | 25453 ft | 448 kts | 314° |
| 2026-05-07 14:25 | 7.44367 | 99.02584 | 24668 ft | 443 kts | 314° |
| 2026-05-07 14:26 | 7.46473 | 99.00333 | 23909 ft | 440 kts | 314° |
| 2026-05-07 14:26 | 7.48563 | 98.98099 | 23104 ft | 435 kts | 314° |
| 2026-05-07 14:26 | 7.50626 | 98.95894 | 22220 ft | 429 kts | 314° |
| 2026-05-07 14:26 | 7.52661 | 98.93717 | 21355 ft | 423 kts | 314° |
| 2026-05-07 14:27 | 7.54662 | 98.91576 | 20522 ft | 417 kts | 314° |
| 2026-05-07 14:27 | 7.56638 | 98.89464 | 19710 ft | 411 kts | 314° |
| 2026-05-07 14:27 | 7.58587 | 98.87380 | 18920 ft | 405 kts | 314° |
| 2026-05-07 14:27 | 7.60505 | 98.85328 | 18147 ft | 400 kts | 314° |
| 2026-05-07 14:28 | 7.62401 | 98.83299 | 17268 ft | 395 kts | 314° |
| 2026-05-07 14:28 | 7.64270 | 98.81298 | 16411 ft | 390 kts | 314° |
| 2026-05-07 14:28 | 7.66116 | 98.79322 | 15576 ft | 385 kts | 314° |
| 2026-05-07 14:28 | 7.67944 | 98.77364 | 14759 ft | 381 kts | 314° |
| 2026-05-07 14:29 | 7.69749 | 98.75432 | 13969 ft | 377 kts | 314° |
| 2026-05-07 14:29 | 7.71514 | 98.73542 | 13134 ft | 373 kts | 314° |
| 2026-05-07 14:29 | 7.73279 | 98.71647 | 12271 ft | 369 kts | 314° |
| 2026-05-07 14:29 | 7.75020 | 98.69765 | 11428 ft | 365 kts | 313° |
| 2026-05-07 14:30 | 7.76498 | 98.67697 | 10613 ft | 362 kts | 298° |
| 2026-05-07 14:30 | 7.77400 | 98.65357 | 10150 ft | 355 kts | 284° |
| 2026-05-07 14:30 | 7.77832 | 98.62918 | 9960 ft | 353 kts | 279° |
| 2026-05-07 14:30 | 7.78233 | 98.60477 | 9872 ft | 353 kts | 279° |
| 2026-05-07 14:31 | 7.78642 | 98.58034 | 9861 ft | 352 kts | 279° |
| 2026-05-07 14:31 | 7.79042 | 98.55647 | 9862 ft | 335 kts | 279° |
| 2026-05-07 14:31 | 7.79419 | 98.53390 | 9843 ft | 318 kts | 279° |
| 2026-05-07 14:31 | 7.79779 | 98.51220 | 9565 ft | 311 kts | 279° |
| 2026-05-07 14:32 | 7.80139 | 98.49082 | 9188 ft | 307 kts | 281° |
| 2026-05-07 14:32 | 7.80728 | 98.47054 | 8822 ft | 304 kts | 291° |
| 2026-05-07 14:32 | 7.81654 | 98.45150 | 8454 ft | 300 kts | 298° |
| 2026-05-07 14:32 | 7.82631 | 98.43301 | 8088 ft | 297 kts | 297° |
| 2026-05-07 14:33 | 7.83591 | 98.41462 | 7731 ft | 294 kts | 297° |
| 2026-05-07 14:33 | 7.84536 | 98.39643 | 7376 ft | 292 kts | 297° |
| 2026-05-07 14:33 | 7.85472 | 98.37840 | 7024 ft | 289 kts | 297° |
| 2026-05-07 14:33 | 7.86401 | 98.36050 | 6675 ft | 287 kts | 297° |
| 2026-05-07 14:34 | 7.87324 | 98.34275 | 6336 ft | 284 kts | 297° |
| 2026-05-07 14:34 | 7.88238 | 98.32515 | 5970 ft | 282 kts | 297° |
| 2026-05-07 14:34 | 7.89144 | 98.30770 | 5595 ft | 278 kts | 297° |
| 2026-05-07 14:34 | 7.90028 | 98.29068 | 5231 ft | 269 kts | 297° |
| 2026-05-07 14:35 | 7.90885 | 98.27418 | 4871 ft | 262 kts | 297° |
| 2026-05-07 14:35 | 7.91718 | 98.25813 | 4505 ft | 255 kts | 297° |
| 2026-05-07 14:35 | 7.92527 | 98.24255 | 4139 ft | 247 kts | 297° |
| 2026-05-07 14:35 | 7.93308 | 98.22750 | 3758 ft | 240 kts | 297° |
| 2026-05-07 14:36 | 7.94081 | 98.21262 | 3288 ft | 239 kts | 297° |
| 2026-05-07 14:36 | 7.94850 | 98.19780 | 2808 ft | 238 kts | 297° |
| 2026-05-07 14:36 | 7.95602 | 98.18332 | 2408 ft | 233 kts | 297° |
| 2026-05-07 14:36 | 7.96346 | 98.16898 | 2047 ft | 228 kts | 297° |
| 2026-05-07 14:37 | 7.97075 | 98.15493 | 1693 ft | 224 kts | 297° |
| 2026-05-07 14:37 | 7.98842 | 98.13286 | 1102 ft | 184 kts | 342° |
| 2026-05-07 14:37 | 8.00117 | 98.13301 | 1041 ft | 188 kts | 17° |
| 2026-05-07 14:38 | 8.01335 | 98.13755 | 1000 ft | 186 kts | 31° |
| 2026-05-07 14:38 | 8.02334 | 98.14580 | 1005 ft | 185 kts | 48° |
| 2026-05-07 14:38 | 8.03166 | 98.15579 | 1005 ft | 186 kts | 52° |
| 2026-05-07 14:38 | 8.03966 | 98.16602 | 1005 ft | 186 kts | 52° |
| 2026-05-07 14:39 | 8.04753 | 98.17616 | 1005 ft | 186 kts | 52° |
| 2026-05-07 14:39 | 8.05538 | 98.18617 | 998 ft | 169 kts | 52° |
| 2026-05-07 14:39 | 8.06259 | 98.19525 | 1002 ft | 165 kts | 52° |
| 2026-05-07 14:39 | 8.06969 | 98.20417 | 1003 ft | 166 kts | 52° |
| 2026-05-07 14:40 | 8.07692 | 98.21323 | 1003 ft | 165 kts | 51° |
| 2026-05-07 14:40 | 8.08407 | 98.22218 | 1004 ft | 164 kts | 51° |
| 2026-05-07 14:40 | 8.09125 | 98.23116 | 1001 ft | 164 kts | 51° |
| 2026-05-07 14:40 | 8.09841 | 98.24012 | 1001 ft | 164 kts | 51° |
| 2026-05-07 14:41 | 8.10529 | 98.24931 | 989 ft | 164 kts | 61° |
| 2026-05-07 14:41 | 8.10817 | 98.26029 | 832 ft | 156 kts | 85° |
| 2026-05-07 14:41 | 8.10900 | 98.27077 | 654 ft | 147 kts | 85° |
| 2026-05-07 14:41 | 8.10987 | 98.28105 | 483 ft | 147 kts | 85° |
| 2026-05-07 14:42 | 8.11079 | 98.29126 | 317 ft | 146 kts | 85° |
| 2026-05-07 14:42 | 8.11181 | 98.30144 | 93 ft | 145 kts | 85° |
| 2026-05-07 14:42 | 8.11278 | 98.31127 | 17 ft | 130 kts | 87° |
| 2026-05-07 14:42 | 8.11338 | 98.31864 | 33 ft | 77 kts | 85° |
| 2026-05-07 14:43 | 8.11369 | 98.32218 | 40 ft | 18 kts | 85° |
| 2026-05-07 14:43 | 8.11363 | 98.32318 | 38 ft | 16 kts | 102° |
| 2026-05-07 14:43 | 8.11339 | 98.32375 | 42 ft | 1 kts | 116° |
| 2026-05-07 14:43 | 8.11322 | 98.32410 | 44 ft | 9 kts | 116° |
| 2026-05-07 14:44 | 8.11271 | 98.32454 | 45 ft | 7 kts | 179° |
| 2026-05-07 14:44 | 8.11254 | 98.32416 | 44 ft | 9 kts | 266° |
| 2026-05-07 14:44 | 8.11249 | 98.32358 | 43 ft | 10 kts | 264° |
| 2026-05-07 14:44 | 8.11241 | 98.32272 | 41 ft | 15 kts | 264° |
| 2026-05-07 14:45 | 8.11228 | 98.32145 | 38 ft | 20 kts | 270° |
| 2026-05-07 14:45 | 8.11216 | 98.32017 | 36 ft | 12 kts | 264° |
| 2026-05-07 14:45 | 8.11207 | 98.31921 | 34 ft | 11 kts | 264° |
| 2026-05-07 14:45 | 8.11197 | 98.31822 | 32 ft | 17 kts | 264° |
| 2026-05-07 14:46 | 8.11185 | 98.31683 | 28 ft | 23 kts | 264° |
| 2026-05-07 14:46 | 8.11167 | 98.31507 | 24 ft | 28 kts | 264° |
| 2026-05-07 14:46 | 8.11149 | 98.31307 | 19 ft | 27 kts | 264° |
| 2026-05-07 14:46 | 8.11132 | 98.31125 | 16 ft | 22 kts | 265° |
| 2026-05-07 14:47 | 8.11116 | 98.30985 | 12 ft | 16 kts | 253° |
| 2026-05-07 14:47 | 8.11080 | 98.30901 | 9 ft | 14 kts | 267° |
| 2026-05-07 14:47 | 8.11073 | 98.30788 | 6 ft | 17 kts | 265° |
| 2026-05-07 14:47 | 8.11062 | 98.30676 | 4 ft | 11 kts | 264° |
| 2026-05-07 14:48 | 8.11055 | 98.30596 | 2 ft | 12 kts | 264° |
| 2026-05-07 14:48 | 8.11045 | 98.30500 | 0 ft | 13 kts | 264° |
| 2026-05-07 14:48 | 8.11037 | 98.30389 | -3 ft | 18 kts | 274° |